sensor_id;sensor_type;location;lat;lon;timestamp;pressure;altitude;pressure_sealevel;temperature
60242;BMP280;46103;52.076;113.488;2022-07-29T00:02:59;92605.63;;;16.47
60242;BMP280;46103;52.076;113.488;2022-07-29T00:06:03;92600.63;;;16.43
60242;BMP280;46103;52.076;113.488;2022-07-29T00:09:07;92615.09;;;16.69
60242;BMP280;46103;52.076;113.488;2022-07-29T00:12:11;92608.72;;;17.04
60242;BMP280;46103;52.076;113.488;2022-07-29T00:15:15;92602.75;;;17.21
60242;BMP280;46103;52.076;113.488;2022-07-29T00:18:19;92614.25;;;17.57
60242;BMP280;46103;52.076;113.488;2022-07-29T00:21:23;92611.59;;;17.59
60242;BMP280;46103;52.076;113.488;2022-07-29T00:24:27;92623.38;;;17.48
60242;BMP280;46103;52.076;113.488;2022-07-29T00:27:30;92604.34;;;17.38
60242;BMP280;46103;52.076;113.488;2022-07-29T00:30:34;92620.38;;;17.69
60242;BMP280;46103;52.076;113.488;2022-07-29T00:33:37;92604.09;;;18.01
60242;BMP280;46103;52.076;113.488;2022-07-29T00:36:41;92619.00;;;18.39
60242;BMP280;46103;52.076;113.488;2022-07-29T00:39:48;92613.97;;;18.92
60242;BMP280;46103;52.076;113.488;2022-07-29T00:42:52;92620.31;;;19.10
60242;BMP280;46103;52.076;113.488;2022-07-29T00:45:58;92610.72;;;19.27
60242;BMP280;46103;52.076;113.488;2022-07-29T00:49:02;92597.75;;;19.45
60242;BMP280;46103;52.076;113.488;2022-07-29T00:52:06;92609.31;;;19.42
60242;BMP280;46103;52.076;113.488;2022-07-29T00:55:12;92591.97;;;19.23
60242;BMP280;46103;52.076;113.488;2022-07-29T00:58:16;92594.50;;;19.04
60242;BMP280;46103;52.076;113.488;2022-07-29T01:01:20;92597.69;;;18.82
60242;BMP280;46103;52.076;113.488;2022-07-29T01:04:24;92608.66;;;18.67
60242;BMP280;46103;52.076;113.488;2022-07-29T01:07:30;92595.22;;;18.59
60242;BMP280;46103;52.076;113.488;2022-07-29T01:10:36;92607.50;;;18.72
60242;BMP280;46103;52.076;113.488;2022-07-29T01:13:43;92592.41;;;18.73
60242;BMP280;46103;52.076;113.488;2022-07-29T01:17:05;92597.06;;;18.84
60242;BMP280;46103;52.076;113.488;2022-07-29T01:20:26;92614.63;;;19.22
60242;BMP280;46103;52.076;113.488;2022-07-29T01:23:46;92614.34;;;19.16
60242;BMP280;46103;52.076;113.488;2022-07-29T01:30:22;92604.25;;;20.01
60242;BMP280;46103;52.076;113.488;2022-07-29T01:33:30;92600.56;;;20.28
60242;BMP280;46103;52.076;113.488;2022-07-29T01:37:09;92605.47;;;20.65
60242;BMP280;46103;52.076;113.488;2022-07-29T01:44:01;92599.94;;;21.01
60242;BMP280;46103;52.076;113.488;2022-07-29T01:47:13;92599.06;;;20.96
60242;BMP280;46103;52.076;113.488;2022-07-29T01:50:20;92594.63;;;21.07
60242;BMP280;46103;52.076;113.488;2022-07-29T01:53:33;92583.13;;;20.95
60242;BMP280;46103;52.076;113.488;2022-07-29T01:56:40;92591.88;;;20.89
60242;BMP280;46103;52.076;113.488;2022-07-29T01:59:46;92589.13;;;20.53
60242;BMP280;46103;52.076;113.488;2022-07-29T02:02:52;92581.53;;;20.36
60242;BMP280;46103;52.076;113.488;2022-07-29T02:05:57;92579.91;;;20.65
60242;BMP280;46103;52.076;113.488;2022-07-29T02:09:02;92581.41;;;20.68
60242;BMP280;46103;52.076;113.488;2022-07-29T02:12:10;92580.44;;;20.43
60242;BMP280;46103;52.076;113.488;2022-07-29T02:15:16;92571.09;;;20.50
60242;BMP280;46103;52.076;113.488;2022-07-29T02:18:22;92561.03;;;20.77
60242;BMP280;46103;52.076;113.488;2022-07-29T02:21:29;92568.47;;;21.10
60242;BMP280;46103;52.076;113.488;2022-07-29T02:24:35;92562.94;;;21.10
60242;BMP280;46103;52.076;113.488;2022-07-29T02:27:41;92553.97;;;20.92
60242;BMP280;46103;52.076;113.488;2022-07-29T02:30:46;92565.53;;;21.06
60242;BMP280;46103;52.076;113.488;2022-07-29T02:33:52;92553.84;;;21.25
60242;BMP280;46103;52.076;113.488;2022-07-29T02:36:57;92548.50;;;21.51
60242;BMP280;46103;52.076;113.488;2022-07-29T02:40:01;92562.56;;;21.77
60242;BMP280;46103;52.076;113.488;2022-07-29T02:43:07;92550.34;;;21.64
60242;BMP280;46103;52.076;113.488;2022-07-29T02:46:16;92538.78;;;21.70
60242;BMP280;46103;52.076;113.488;2022-07-29T02:49:38;92552.75;;;21.74
60242;BMP280;46103;52.076;113.488;2022-07-29T02:52:45;92560.78;;;21.85
60242;BMP280;46103;52.076;113.488;2022-07-29T02:56:10;92542.13;;;21.86
60242;BMP280;46103;52.076;113.488;2022-07-29T02:59:18;92545.97;;;21.99
60242;BMP280;46103;52.076;113.488;2022-07-29T03:02:25;92547.97;;;21.96
60242;BMP280;46103;52.076;113.488;2022-07-29T03:05:34;92540.31;;;21.95
60242;BMP280;46103;52.076;113.488;2022-07-29T03:08:40;92545.03;;;22.12
60242;BMP280;46103;52.076;113.488;2022-07-29T03:11:44;92533.25;;;22.33
60242;BMP280;46103;52.076;113.488;2022-07-29T03:14:53;92549.16;;;22.56
60242;BMP280;46103;52.076;113.488;2022-07-29T03:17:58;92541.09;;;22.65
60242;BMP280;46103;52.076;113.488;2022-07-29T03:21:03;92535.22;;;22.76
60242;BMP280;46103;52.076;113.488;2022-07-29T03:24:06;92541.69;;;22.85
60242;BMP280;46103;52.076;113.488;2022-07-29T03:27:14;92548.47;;;22.80
60242;BMP280;46103;52.076;113.488;2022-07-29T03:30:18;92540.03;;;22.76
60242;BMP280;46103;52.076;113.488;2022-07-29T03:33:23;92523.63;;;22.82
60242;BMP280;46103;52.076;113.488;2022-07-29T03:36:26;92517.34;;;23.05
60242;BMP280;46103;52.076;113.488;2022-07-29T03:39:34;92519.56;;;23.11
60242;BMP280;46103;52.076;113.488;2022-07-29T03:42:40;92521.28;;;23.22
60242;BMP280;46103;52.076;113.488;2022-07-29T03:45:47;92526.13;;;23.47
60242;BMP280;46103;52.076;113.488;2022-07-29T03:48:56;92525.47;;;23.77
60242;BMP280;46103;52.076;113.488;2022-07-29T03:52:02;92518.56;;;23.78
60242;BMP280;46103;52.076;113.488;2022-07-29T03:55:07;92502.00;;;23.54
60242;BMP280;46103;52.076;113.488;2022-07-29T03:58:12;92497.22;;;23.56
60242;BMP280;46103;52.076;113.488;2022-07-29T04:01:17;92500.47;;;23.77
60242;BMP280;46103;52.076;113.488;2022-07-29T04:04:22;92520.34;;;23.93
60242;BMP280;46103;52.076;113.488;2022-07-29T04:07:28;92522.50;;;23.97
60242;BMP280;46103;52.076;113.488;2022-07-29T04:10:33;92510.22;;;24.06
60242;BMP280;46103;52.076;113.488;2022-07-29T04:13:37;92500.56;;;24.09
60242;BMP280;46103;52.076;113.488;2022-07-29T04:16:41;92493.47;;;24.32
60242;BMP280;46103;52.076;113.488;2022-07-29T04:19:44;92489.75;;;24.53
60242;BMP280;46103;52.076;113.488;2022-07-29T04:22:48;92497.06;;;24.70
60242;BMP280;46103;52.076;113.488;2022-07-29T04:25:52;92508.72;;;24.62
60242;BMP280;46103;52.076;113.488;2022-07-29T04:28:55;92497.75;;;24.69
60242;BMP280;46103;52.076;113.488;2022-07-29T04:31:59;92489.53;;;24.75
60242;BMP280;46103;52.076;113.488;2022-07-29T04:35:03;92476.88;;;24.68
60242;BMP280;46103;52.076;113.488;2022-07-29T04:38:07;92483.44;;;24.82
60242;BMP280;46103;52.076;113.488;2022-07-29T04:41:18;92469.66;;;24.88
60242;BMP280;46103;52.076;113.488;2022-07-29T04:44:22;92479.06;;;25.07
60242;BMP280;46103;52.076;113.488;2022-07-29T04:47:30;92476.06;;;24.97
60242;BMP280;46103;52.076;113.488;2022-07-29T04:50:34;92463.13;;;24.76
60242;BMP280;46103;52.076;113.488;2022-07-29T04:53:38;92463.75;;;24.72
60242;BMP280;46103;52.076;113.488;2022-07-29T04:56:41;92469.72;;;24.92
60242;BMP280;46103;52.076;113.488;2022-07-29T04:59:45;92465.19;;;25.09
60242;BMP280;46103;52.076;113.488;2022-07-29T05:02:49;92465.53;;;25.29
60242;BMP280;46103;52.076;113.488;2022-07-29T05:05:55;92462.03;;;25.27
60242;BMP280;46103;52.076;113.488;2022-07-29T05:08:59;92466.19;;;25.26
60242;BMP280;46103;52.076;113.488;2022-07-29T05:12:03;92448.00;;;25.21
60242;BMP280;46103;52.076;113.488;2022-07-29T05:15:07;92452.91;;;25.24
60242;BMP280;46103;52.076;113.488;2022-07-29T05:18:10;92442.47;;;25.23
60242;BMP280;46103;52.076;113.488;2022-07-29T05:21:14;92463.41;;;25.28
60242;BMP280;46103;52.076;113.488;2022-07-29T05:24:18;92459.34;;;25.33
60242;BMP280;46103;52.076;113.488;2022-07-29T05:27:22;92452.53;;;25.40
60242;BMP280;46103;52.076;113.488;2022-07-29T05:30:26;92456.94;;;25.53
60242;BMP280;46103;52.076;113.488;2022-07-29T05:33:29;92450.72;;;25.59
60242;BMP280;46103;52.076;113.488;2022-07-29T05:36:38;92452.22;;;25.64
60242;BMP280;46103;52.076;113.488;2022-07-29T05:39:41;92451.06;;;25.79
60242;BMP280;46103;52.076;113.488;2022-07-29T05:42:51;92451.94;;;25.90
60242;BMP280;46103;52.076;113.488;2022-07-29T05:45:56;92453.22;;;25.83
60242;BMP280;46103;52.076;113.488;2022-07-29T05:49:00;92439.66;;;26.07
60242;BMP280;46103;52.076;113.488;2022-07-29T05:52:05;92433.09;;;26.36
60242;BMP280;46103;52.076;113.488;2022-07-29T05:55:09;92437.78;;;26.74
60242;BMP280;46103;52.076;113.488;2022-07-29T05:58:15;92455.75;;;27.27
60242;BMP280;46103;52.076;113.488;2022-07-29T06:01:19;92458.13;;;27.57
60242;BMP280;46103;52.076;113.488;2022-07-29T06:04:23;92456.16;;;27.76
60242;BMP280;46103;52.076;113.488;2022-07-29T06:07:27;92469.78;;;27.35
60242;BMP280;46103;52.076;113.488;2022-07-29T06:10:35;92446.94;;;26.87
60242;BMP280;46103;52.076;113.488;2022-07-29T06:13:39;92450.25;;;26.71
60242;BMP280;46103;52.076;113.488;2022-07-29T06:16:42;92445.69;;;26.96
60242;BMP280;46103;52.076;113.488;2022-07-29T06:19:46;92464.38;;;27.54
60242;BMP280;46103;52.076;113.488;2022-07-29T06:22:50;92454.88;;;27.85
60242;BMP280;46103;52.076;113.488;2022-07-29T06:25:54;92467.53;;;27.96
60242;BMP280;46103;52.076;113.488;2022-07-29T06:28:57;92460.63;;;28.09
60242;BMP280;46103;52.076;113.488;2022-07-29T06:32:01;92456.28;;;27.88
60242;BMP280;46103;52.076;113.488;2022-07-29T06:35:06;92444.47;;;28.00
60242;BMP280;46103;52.076;113.488;2022-07-29T06:38:29;92436.47;;;27.54
60242;BMP280;46103;52.076;113.488;2022-07-29T06:41:41;92433.47;;;27.31
60242;BMP280;46103;52.076;113.488;2022-07-29T06:44:47;92430.41;;;27.83
60242;BMP280;46103;52.076;113.488;2022-07-29T06:47:52;92451.13;;;28.69
60242;BMP280;46103;52.076;113.488;2022-07-29T06:50:56;92442.19;;;29.27
60242;BMP280;46103;52.076;113.488;2022-07-29T06:53:59;92447.09;;;29.57
60242;BMP280;46103;52.076;113.488;2022-07-29T06:57:05;92456.91;;;30.03
60242;BMP280;46103;52.076;113.488;2022-07-29T07:00:09;92463.84;;;30.34
60242;BMP280;46103;52.076;113.488;2022-07-29T07:03:14;92467.59;;;31.33
60242;BMP280;46103;52.076;113.488;2022-07-29T07:06:18;92468.88;;;31.46
60242;BMP280;46103;52.076;113.488;2022-07-29T07:09:22;92473.97;;;32.07
60242;BMP280;46103;52.076;113.488;2022-07-29T07:12:41;92454.38;;;33.60
60242;BMP280;46103;52.076;113.488;2022-07-29T07:15:46;92438.16;;;34.36
60242;BMP280;46103;52.076;113.488;2022-07-29T07:18:51;92453.53;;;34.78
60242;BMP280;46103;52.076;113.488;2022-07-29T07:21:55;92452.00;;;34.83
60242;BMP280;46103;52.076;113.488;2022-07-29T07:24:59;92465.34;;;35.49
60242;BMP280;46103;52.076;113.488;2022-07-29T07:28:03;92460.28;;;35.82
60242;BMP280;46103;52.076;113.488;2022-07-29T07:31:07;92468.22;;;36.02
60242;BMP280;46103;52.076;113.488;2022-07-29T07:34:10;92462.22;;;36.41
60242;BMP280;46103;52.076;113.488;2022-07-29T07:37:15;92463.81;;;36.34
60242;BMP280;46103;52.076;113.488;2022-07-29T07:40:20;92457.06;;;36.73
60242;BMP280;46103;52.076;113.488;2022-07-29T07:43:24;92458.22;;;37.05
60242;BMP280;46103;52.076;113.488;2022-07-29T07:46:28;92451.66;;;37.33
60242;BMP280;46103;52.076;113.488;2022-07-29T07:49:32;92437.03;;;37.01
60242;BMP280;46103;52.076;113.488;2022-07-29T07:52:49;92436.19;;;37.28
60242;BMP280;46103;52.076;113.488;2022-07-29T07:55:53;92436.06;;;37.32
60242;BMP280;46103;52.076;113.488;2022-07-29T07:59:13;92444.63;;;37.53
60242;BMP280;46103;52.076;113.488;2022-07-29T08:02:17;92446.94;;;38.29
60242;BMP280;46103;52.076;113.488;2022-07-29T08:05:21;92450.59;;;38.25
60242;BMP280;46103;52.076;113.488;2022-07-29T08:08:25;92454.50;;;38.55
60242;BMP280;46103;52.076;113.488;2022-07-29T08:11:29;92444.06;;;39.22
60242;BMP280;46103;52.076;113.488;2022-07-29T08:14:37;92453.66;;;39.82
60242;BMP280;46103;52.076;113.488;2022-07-29T08:17:40;92441.72;;;40.58
60242;BMP280;46103;52.076;113.488;2022-07-29T08:20:44;92442.81;;;40.34
60242;BMP280;46103;52.076;113.488;2022-07-29T08:23:48;92435.03;;;40.33
60242;BMP280;46103;52.076;113.488;2022-07-29T08:27:02;92430.22;;;40.61
60242;BMP280;46103;52.076;113.488;2022-07-29T08:30:23;92429.47;;;40.91
60242;BMP280;46103;52.076;113.488;2022-07-29T08:33:26;92427.84;;;40.65
60242;BMP280;46103;52.076;113.488;2022-07-29T08:36:31;92437.94;;;40.47
60242;BMP280;46103;52.076;113.488;2022-07-29T08:39:35;92421.22;;;41.00
60242;BMP280;46103;52.076;113.488;2022-07-29T08:42:39;92433.31;;;41.15
60242;BMP280;46103;52.076;113.488;2022-07-29T08:45:47;92430.97;;;41.05
60242;BMP280;46103;52.076;113.488;2022-07-29T08:48:51;92432.13;;;40.95
60242;BMP280;46103;52.076;113.488;2022-07-29T08:51:57;92422.88;;;40.95
60242;BMP280;46103;52.076;113.488;2022-07-29T08:55:02;92429.03;;;41.58
60242;BMP280;46103;52.076;113.488;2022-07-29T08:58:07;92418.81;;;42.30
60242;BMP280;46103;52.076;113.488;2022-07-29T09:01:21;92423.13;;;42.94
60242;BMP280;46103;52.076;113.488;2022-07-29T09:04:38;92426.09;;;43.05
60242;BMP280;46103;52.076;113.488;2022-07-29T09:07:43;92430.34;;;42.81
60242;BMP280;46103;52.076;113.488;2022-07-29T09:10:50;92407.31;;;43.33
60242;BMP280;46103;52.076;113.488;2022-07-29T09:13:55;92423.34;;;43.77
60242;BMP280;46103;52.076;113.488;2022-07-29T09:16:59;92407.34;;;43.57
60242;BMP280;46103;52.076;113.488;2022-07-29T09:20:17;92409.13;;;43.98
60242;BMP280;46103;52.076;113.488;2022-07-29T09:23:25;92416.13;;;43.65
60242;BMP280;46103;52.076;113.488;2022-07-29T09:26:30;92395.75;;;43.23
60242;BMP280;46103;52.076;113.488;2022-07-29T09:29:35;92402.16;;;44.18
60242;BMP280;46103;52.076;113.488;2022-07-29T09:33:00;92410.53;;;44.67
60242;BMP280;46103;52.076;113.488;2022-07-29T09:36:08;92399.66;;;44.12
60242;BMP280;46103;52.076;113.488;2022-07-29T09:39:13;92407.16;;;43.71
60242;BMP280;46103;52.076;113.488;2022-07-29T09:42:28;92408.88;;;43.79
60242;BMP280;46103;52.076;113.488;2022-07-29T09:45:33;92405.94;;;43.68
60242;BMP280;46103;52.076;113.488;2022-07-29T09:48:37;92409.75;;;44.34
60242;BMP280;46103;52.076;113.488;2022-07-29T09:51:41;92400.69;;;43.96
60242;BMP280;46103;52.076;113.488;2022-07-29T09:54:45;92412.03;;;44.32
60242;BMP280;46103;52.076;113.488;2022-07-29T09:57:49;92411.19;;;44.23
60242;BMP280;46103;52.076;113.488;2022-07-29T10:00:54;92413.66;;;44.63
60242;BMP280;46103;52.076;113.488;2022-07-29T10:03:58;92418.25;;;44.81
60242;BMP280;46103;52.076;113.488;2022-07-29T10:07:02;92419.00;;;45.03
60242;BMP280;46103;52.076;113.488;2022-07-29T10:10:08;92414.91;;;45.21
60242;BMP280;46103;52.076;113.488;2022-07-29T10:13:13;92408.75;;;45.27
60242;BMP280;46103;52.076;113.488;2022-07-29T10:16:18;92402.88;;;45.18
60242;BMP280;46103;52.076;113.488;2022-07-29T10:19:22;92398.50;;;45.51
60242;BMP280;46103;52.076;113.488;2022-07-29T10:22:26;92403.56;;;45.40
60242;BMP280;46103;52.076;113.488;2022-07-29T10:25:50;92393.00;;;44.94
60242;BMP280;46103;52.076;113.488;2022-07-29T10:28:55;92398.28;;;44.68
60242;BMP280;46103;52.076;113.488;2022-07-29T10:32:22;92398.97;;;44.35
60242;BMP280;46103;52.076;113.488;2022-07-29T10:42:11;92382.25;;;45.26
60242;BMP280;46103;52.076;113.488;2022-07-29T10:45:21;92389.09;;;45.31
60242;BMP280;46103;52.076;113.488;2022-07-29T10:48:26;92384.16;;;45.19
60242;BMP280;46103;52.076;113.488;2022-07-29T10:51:55;92385.78;;;45.06
60242;BMP280;46103;52.076;113.488;2022-07-29T10:55:02;92380.31;;;44.91
60242;BMP280;46103;52.076;113.488;2022-07-29T10:58:21;92381.34;;;44.64
60242;BMP280;46103;52.076;113.488;2022-07-29T11:01:30;92385.53;;;44.21
60242;BMP280;46103;52.076;113.488;2022-07-29T11:15:11;92395.09;;;42.46
60242;BMP280;46103;52.076;113.488;2022-07-29T11:18:23;92390.69;;;41.68
60242;BMP280;46103;52.076;113.488;2022-07-29T11:21:37;92382.66;;;41.85
60242;BMP280;46103;52.076;113.488;2022-07-29T11:25:17;92398.34;;;41.86
60242;BMP280;46103;52.076;113.488;2022-07-29T11:28:51;92405.34;;;41.74
60242;BMP280;46103;52.076;113.488;2022-07-29T11:32:08;92377.16;;;41.53
60242;BMP280;46103;52.076;113.488;2022-07-29T11:35:21;92399.56;;;41.62
60242;BMP280;46103;52.076;113.488;2022-07-29T11:38:40;92397.69;;;41.14
60242;BMP280;46103;52.076;113.488;2022-07-29T11:41:44;92396.22;;;40.71
60242;BMP280;46103;52.076;113.488;2022-07-29T11:47:59;92391.75;;;39.65
60242;BMP280;46103;52.076;113.488;2022-07-29T11:51:23;92395.91;;;39.00
60242;BMP280;46103;52.076;113.488;2022-07-29T11:54:35;92399.00;;;38.19
60242;BMP280;46103;52.076;113.488;2022-07-29T11:58:01;92402.44;;;37.40
60242;BMP280;46103;52.076;113.488;2022-07-29T12:01:06;92404.34;;;36.59
60242;BMP280;46103;52.076;113.488;2022-07-29T12:04:10;92402.84;;;35.61
60242;BMP280;46103;52.076;113.488;2022-07-29T12:07:15;92397.69;;;34.50
60242;BMP280;46103;52.076;113.488;2022-07-29T12:10:19;92390.22;;;33.19
60242;BMP280;46103;52.076;113.488;2022-07-29T12:13:38;92389.19;;;30.92
60242;BMP280;46103;52.076;113.488;2022-07-29T12:16:43;92408.59;;;29.38
60242;BMP280;46103;52.076;113.488;2022-07-29T12:19:47;92396.38;;;28.15
60242;BMP280;46103;52.076;113.488;2022-07-29T12:22:53;92389.47;;;27.30
60242;BMP280;46103;52.076;113.488;2022-07-29T12:25:58;92397.81;;;26.57
60242;BMP280;46103;52.076;113.488;2022-07-29T12:29:03;92383.03;;;25.92
60242;BMP280;46103;52.076;113.488;2022-07-29T12:32:21;92388.03;;;25.56
60242;BMP280;46103;52.076;113.488;2022-07-29T12:35:26;92384.34;;;25.01
60242;BMP280;46103;52.076;113.488;2022-07-29T12:38:30;92390.06;;;24.71
60242;BMP280;46103;52.076;113.488;2022-07-29T12:41:38;92386.88;;;24.51
60242;BMP280;46103;52.076;113.488;2022-07-29T12:44:46;92389.75;;;24.21
60242;BMP280;46103;52.076;113.488;2022-07-29T12:47:51;92378.00;;;23.90
60242;BMP280;46103;52.076;113.488;2022-07-29T12:50:57;92376.66;;;23.64
60242;BMP280;46103;52.076;113.488;2022-07-29T12:54:15;92387.88;;;23.40
60242;BMP280;46103;52.076;113.488;2022-07-29T12:57:19;92377.53;;;23.14
60242;BMP280;46103;52.076;113.488;2022-07-29T13:00:24;92376.47;;;23.00
60242;BMP280;46103;52.076;113.488;2022-07-29T13:03:28;92365.66;;;22.84
60242;BMP280;46103;52.076;113.488;2022-07-29T13:06:42;92380.00;;;22.76
60242;BMP280;46103;52.076;113.488;2022-07-29T13:09:50;92381.81;;;22.66
60242;BMP280;46103;52.076;113.488;2022-07-29T13:13:12;92365.31;;;22.46
60242;BMP280;46103;52.076;113.488;2022-07-29T13:16:16;92362.16;;;22.32
60242;BMP280;46103;52.076;113.488;2022-07-29T13:19:38;92372.41;;;22.27
60242;BMP280;46103;52.076;113.488;2022-07-29T13:22:48;92365.41;;;22.24
60242;BMP280;46103;52.076;113.488;2022-07-29T13:25:52;92365.88;;;22.16
60242;BMP280;46103;52.076;113.488;2022-07-29T13:28:56;92369.81;;;22.09
60242;BMP280;46103;52.076;113.488;2022-07-29T13:32:00;92362.44;;;21.94
60242;BMP280;46103;52.076;113.488;2022-07-29T13:35:06;92360.00;;;21.82
60242;BMP280;46103;52.076;113.488;2022-07-29T13:38:10;92371.06;;;21.82
60242;BMP280;46103;52.076;113.488;2022-07-29T13:41:14;92355.59;;;21.73
60242;BMP280;46103;52.076;113.488;2022-07-29T13:44:19;92358.13;;;21.65
60242;BMP280;46103;52.076;113.488;2022-07-29T13:47:23;92324.75;;;21.37
60242;BMP280;46103;52.076;113.488;2022-07-29T13:50:34;92349.78;;;21.41
60242;BMP280;46103;52.076;113.488;2022-07-29T13:53:38;92348.56;;;21.27
60242;BMP280;46103;52.076;113.488;2022-07-29T13:56:42;92330.56;;;21.04
60242;BMP280;46103;52.076;113.488;2022-07-29T13:59:48;92323.97;;;20.93
60242;BMP280;46103;52.076;113.488;2022-07-29T14:02:56;92322.56;;;20.92
60242;BMP280;46103;52.076;113.488;2022-07-29T14:06:00;92316.69;;;20.82
60242;BMP280;46103;52.076;113.488;2022-07-29T14:09:04;92330.31;;;20.76
60242;BMP280;46103;52.076;113.488;2022-07-29T14:12:14;92328.53;;;20.65
60242;BMP280;46103;52.076;113.488;2022-07-29T14:15:18;92318.25;;;20.47
60242;BMP280;46103;52.076;113.488;2022-07-29T14:18:24;92330.53;;;20.42
60242;BMP280;46103;52.076;113.488;2022-07-29T14:21:27;92315.97;;;20.22
60242;BMP280;46103;52.076;113.488;2022-07-29T14:24:34;92318.59;;;20.18
60242;BMP280;46103;52.076;113.488;2022-07-29T14:27:38;92309.56;;;20.15
60242;BMP280;46103;52.076;113.488;2022-07-29T14:30:43;92308.06;;;20.12
60242;BMP280;46103;52.076;113.488;2022-07-29T14:33:47;92309.00;;;20.01
60242;BMP280;46103;52.076;113.488;2022-07-29T14:36:51;92306.97;;;20.02
60242;BMP280;46103;52.076;113.488;2022-07-29T14:39:54;92311.72;;;19.99
60242;BMP280;46103;52.076;113.488;2022-07-29T14:43:03;92313.13;;;19.82
60242;BMP280;46103;52.076;113.488;2022-07-29T14:46:06;92316.41;;;19.59
60242;BMP280;46103;52.076;113.488;2022-07-29T14:49:11;92331.09;;;19.48
60242;BMP280;46103;52.076;113.488;2022-07-29T14:52:14;92322.13;;;19.30
60242;BMP280;46103;52.076;113.488;2022-07-29T14:55:19;92326.22;;;19.11
60242;BMP280;46103;52.076;113.488;2022-07-29T14:58:23;92341.34;;;18.94
60242;BMP280;46103;52.076;113.488;2022-07-29T15:01:27;92342.25;;;18.83
60242;BMP280;46103;52.076;113.488;2022-07-29T15:04:33;92338.97;;;18.71
60242;BMP280;46103;52.076;113.488;2022-07-29T15:07:37;92343.25;;;18.58
60242;BMP280;46103;52.076;113.488;2022-07-29T15:10:41;92336.69;;;18.49
60242;BMP280;46103;52.076;113.488;2022-07-29T15:13:45;92341.66;;;18.53
60242;BMP280;46103;52.076;113.488;2022-07-29T15:16:49;92343.50;;;18.48
60242;BMP280;46103;52.076;113.488;2022-07-29T15:19:54;92355.53;;;18.55
60242;BMP280;46103;52.076;113.488;2022-07-29T15:22:58;92337.41;;;18.50
60242;BMP280;46103;52.076;113.488;2022-07-29T15:26:02;92349.56;;;18.45
60242;BMP280;46103;52.076;113.488;2022-07-29T15:29:06;92353.19;;;18.34
60242;BMP280;46103;52.076;113.488;2022-07-29T15:32:10;92356.38;;;18.28
60242;BMP280;46103;52.076;113.488;2022-07-29T15:35:14;92358.16;;;18.21
60242;BMP280;46103;52.076;113.488;2022-07-29T15:38:17;92352.91;;;18.12
60242;BMP280;46103;52.076;113.488;2022-07-29T15:41:30;92362.69;;;18.15
60242;BMP280;46103;52.076;113.488;2022-07-29T15:44:34;92356.63;;;18.03
60242;BMP280;46103;52.076;113.488;2022-07-29T15:47:38;92361.56;;;17.90
60242;BMP280;46103;52.076;113.488;2022-07-29T15:50:41;92367.94;;;17.95
60242;BMP280;46103;52.076;113.488;2022-07-29T15:53:48;92378.03;;;17.90
60242;BMP280;46103;52.076;113.488;2022-07-29T15:56:55;92387.38;;;17.83
60242;BMP280;46103;52.076;113.488;2022-07-29T15:59:59;92382.09;;;17.74
60242;BMP280;46103;52.076;113.488;2022-07-29T16:03:08;92391.03;;;17.74
60242;BMP280;46103;52.076;113.488;2022-07-29T16:06:13;92374.69;;;17.62
60242;BMP280;46103;52.076;113.488;2022-07-29T16:09:17;92373.88;;;17.60
60242;BMP280;46103;52.076;113.488;2022-07-29T16:12:20;92382.75;;;17.58
60242;BMP280;46103;52.076;113.488;2022-07-29T16:15:24;92365.84;;;17.50
60242;BMP280;46103;52.076;113.488;2022-07-29T16:18:29;92385.91;;;17.53
60242;BMP280;46103;52.076;113.488;2022-07-29T16:21:32;92375.88;;;17.44
60242;BMP280;46103;52.076;113.488;2022-07-29T16:24:38;92393.25;;;17.48
60242;BMP280;46103;52.076;113.488;2022-07-29T16:27:41;92389.78;;;17.48
60242;BMP280;46103;52.076;113.488;2022-07-29T16:30:45;92374.94;;;17.39
60242;BMP280;46103;52.076;113.488;2022-07-29T16:33:49;92370.25;;;17.42
60242;BMP280;46103;52.076;113.488;2022-07-29T16:36:57;92391.09;;;17.47
60242;BMP280;46103;52.076;113.488;2022-07-29T16:40:02;92374.31;;;17.41
60242;BMP280;46103;52.076;113.488;2022-07-29T16:43:07;92383.28;;;17.41
60242;BMP280;46103;52.076;113.488;2022-07-29T16:46:11;92374.13;;;17.36
60242;BMP280;46103;52.076;113.488;2022-07-29T16:49:20;92366.81;;;17.27
60242;BMP280;46103;52.076;113.488;2022-07-29T16:52:24;92372.63;;;17.20
60242;BMP280;46103;52.076;113.488;2022-07-29T16:55:28;92367.56;;;17.14
60242;BMP280;46103;52.076;113.488;2022-07-29T16:58:31;92376.50;;;17.15
60242;BMP280;46103;52.076;113.488;2022-07-29T17:01:35;92371.72;;;17.15
60242;BMP280;46103;52.076;113.488;2022-07-29T17:04:39;92369.59;;;17.14
60242;BMP280;46103;52.076;113.488;2022-07-29T17:07:43;92375.47;;;17.22
60242;BMP280;46103;52.076;113.488;2022-07-29T17:10:47;92376.19;;;17.22
60242;BMP280;46103;52.076;113.488;2022-07-29T17:13:50;92363.41;;;17.13
60242;BMP280;46103;52.076;113.488;2022-07-29T17:16:56;92366.16;;;17.13
60242;BMP280;46103;52.076;113.488;2022-07-29T17:20:05;92351.09;;;16.87
60242;BMP280;46103;52.076;113.488;2022-07-29T17:23:09;92359.31;;;16.87
60242;BMP280;46103;52.076;113.488;2022-07-29T17:26:13;92361.03;;;16.80
60242;BMP280;46103;52.076;113.488;2022-07-29T17:29:17;92360.03;;;16.73
60242;BMP280;46103;52.076;113.488;2022-07-29T17:32:20;92338.38;;;16.52
60242;BMP280;46103;52.076;113.488;2022-07-29T17:35:24;92382.66;;;16.60
60242;BMP280;46103;52.076;113.488;2022-07-29T17:38:47;92383.00;;;16.53
60242;BMP280;46103;52.076;113.488;2022-07-29T17:41:51;92371.22;;;16.38
60242;BMP280;46103;52.076;113.488;2022-07-29T17:44:54;92377.78;;;16.45
60242;BMP280;46103;52.076;113.488;2022-07-29T17:47:58;92373.06;;;16.34
60242;BMP280;46103;52.076;113.488;2022-07-29T17:51:02;92379.84;;;16.33
60242;BMP280;46103;52.076;113.488;2022-07-29T17:54:06;92376.81;;;16.27